createdAt,value
2019-02-20T00:00:06.344Z,-0.17
2019-02-20T00:01:14.264Z,-0.21
2019-02-20T00:02:06.259Z,-0.21
2019-02-20T00:03:13.233Z,-0.17
2019-02-20T00:04:06.238Z,-0.14
2019-02-20T00:05:06.228Z,-0.21
2019-02-20T00:06:06.235Z,-0.17
2019-02-20T00:07:07.414Z,-0.14
2019-02-20T00:08:06.198Z,-0.21
2019-02-20T00:09:07.431Z,-0.17
2019-02-20T00:10:07.285Z,-0.20
2019-02-20T00:11:06.214Z,-0.21
2019-02-20T00:12:06.300Z,-0.06
2019-02-20T00:13:06.154Z,-0.09
2019-02-20T00:14:08.275Z,-0.16
2019-02-20T00:15:07.225Z,-0.17
2019-02-20T00:16:06.105Z,-0.20
2019-02-20T00:17:07.212Z,-0.23
2019-02-20T00:18:06.084Z,-0.24
2019-02-20T00:19:07.185Z,-0.30
2019-02-20T00:20:06.092Z,-0.30
2019-02-20T00:21:08.154Z,-0.32
2019-02-20T00:22:06.057Z,-0.45
2019-02-20T00:23:43.695Z,-0.45
2019-02-20T00:24:06.027Z,-0.47
2019-02-20T00:25:06.012Z,-0.52
2019-02-20T00:26:05.996Z,-0.60
2019-02-20T00:27:05.990Z,-0.47
2019-02-20T00:28:08.126Z,-0.58
2019-02-20T00:29:05.972Z,-0.47
2019-02-20T00:30:07.008Z,-0.62
2019-02-20T00:31:14.749Z,-0.47
2019-02-20T00:32:05.950Z,-0.47
2019-02-20T00:33:07.039Z,-0.56
2019-02-20T00:34:05.919Z,-0.62
2019-02-20T00:35:05.953Z,-0.58
2019-02-20T00:36:05.973Z,-0.62
2019-02-20T00:37:14.751Z,-0.59
2019-02-20T00:38:05.870Z,-0.62
2019-02-20T00:39:05.931Z,-0.53
2019-02-20T00:40:05.842Z,-0.60
2019-02-20T00:41:12.722Z,-0.58
2019-02-20T00:42:05.834Z,-0.60
2019-02-20T00:43:06.922Z,-0.63
2019-02-20T00:44:05.793Z,-0.65
2019-02-20T00:45:07.884Z,-0.56
2019-02-20T00:46:05.784Z,-0.56
2019-02-20T00:47:05.774Z,-0.63
2019-02-20T00:48:05.746Z,-0.65
2019-02-20T00:49:05.810Z,-0.62
2019-02-20T00:50:05.725Z,-0.58
2019-02-20T00:51:07.785Z,-0.68
2019-02-20T00:52:06.886Z,-0.68
2019-02-20T00:53:05.697Z,-0.71
2019-02-20T00:54:05.743Z,-0.60
2019-02-20T00:55:05.677Z,-0.70
2019-02-20T00:56:05.686Z,-0.70
2019-02-20T00:57:05.680Z,-0.71
2019-02-20T00:58:05.723Z,-0.63
2019-02-20T00:59:05.641Z,-0.60
2019-02-20T01:00:06.674Z,-0.62
2019-02-20T01:01:05.614Z,-0.63
2019-02-20T01:02:05.860Z,-0.62
2019-02-20T01:03:05.591Z,-0.65
2019-02-20T01:04:05.631Z,-0.63
2019-02-20T01:05:05.571Z,-0.68
2019-02-20T01:06:05.656Z,-0.68
2019-02-20T01:07:05.583Z,-0.60
2019-02-20T01:08:05.626Z,-0.70
2019-02-20T01:09:06.591Z,-0.73
2019-02-20T01:10:05.515Z,-0.73
2019-02-20T01:11:05.761Z,-0.78
2019-02-20T01:12:05.503Z,-0.76
2019-02-20T01:13:05.484Z,-0.93
2019-02-20T01:14:05.503Z,-0.78
2019-02-20T01:15:05.449Z,-0.78
2019-02-20T01:16:05.690Z,-0.76
2019-02-20T01:17:05.476Z,-0.96
2019-02-20T01:18:05.446Z,-0.93
2019-02-20T01:19:05.407Z,-0.93
2019-02-20T01:20:05.507Z,-0.92
2019-02-20T01:21:05.379Z,-0.90
2019-02-20T01:22:06.409Z,-0.80
2019-02-20T01:23:05.358Z,-0.83
2019-02-20T01:24:05.379Z,-0.85
2019-02-20T01:25:05.337Z,-0.89
2019-02-20T01:26:06.439Z,-0.99
2019-02-20T01:27:05.357Z,-0.99
2019-02-20T01:28:05.350Z,-0.99
2019-02-20T01:29:05.293Z,-0.99
2019-02-20T01:30:06.343Z,-1.00
2019-02-20T01:31:05.279Z,-1.05
2019-02-20T01:32:05.382Z,-1.10
2019-02-20T01:33:05.262Z,-0.97
2019-02-20T01:34:05.245Z,-1.05
2019-02-20T01:35:06.279Z,-1.05
2019-02-20T01:36:05.230Z,-1.03
2019-02-20T01:37:05.325Z,-0.97
2019-02-20T01:38:05.205Z,-1.05
2019-02-20T01:39:05.206Z,-1.02
2019-02-20T01:40:05.185Z,-1.07
2019-02-20T01:41:05.247Z,-0.96
2019-02-20T01:42:05.194Z,-1.05
2019-02-20T01:43:05.176Z,-0.93
2019-02-20T01:44:05.138Z,-1.03
2019-02-20T01:45:05.217Z,-0.97
2019-02-20T01:46:05.128Z,-1.05
2019-02-20T01:47:06.221Z,-0.96
2019-02-20T01:48:05.111Z,-1.10
2019-02-20T01:49:05.201Z,-0.99
2019-02-20T01:50:05.069Z,-1.02
2019-02-20T01:51:07.170Z,-0.99
2019-02-20T01:52:05.059Z,-0.97
2019-02-20T01:53:10.183Z,-0.97
2019-02-20T01:54:05.028Z,-1.11
2019-02-20T01:55:05.020Z,-1.05
2019-02-20T01:56:05.061Z,-1.05
2019-02-20T01:57:05.002Z,-1.02
2019-02-20T01:58:11.743Z,-0.92
2019-02-20T01:59:04.962Z,-1.07
2019-02-20T02:00:04.956Z,-1.03
2019-02-20T02:01:04.942Z,-0.92
2019-02-20T02:02:05.008Z,-1.02
2019-02-20T02:03:04.915Z,-1.05
2019-02-20T02:04:05.004Z,-0.97
2019-02-20T02:05:04.901Z,-1.11
2019-02-20T02:06:04.955Z,-1.07
2019-02-20T02:07:04.885Z,-1.08
2019-02-20T02:08:05.895Z,-1.08
2019-02-20T02:09:04.855Z,-1.02
2019-02-20T02:10:04.906Z,-1.08
2019-02-20T02:11:04.826Z,-0.99
2019-02-20T02:12:04.898Z,-0.95
2019-02-20T02:13:04.815Z,-1.11
2019-02-20T02:14:05.903Z,-1.10
2019-02-20T02:15:04.790Z,-1.03
2019-02-20T02:16:04.789Z,-0.97
2019-02-20T02:17:04.883Z,-0.96
2019-02-20T02:18:04.769Z,-1.00
2019-02-20T02:19:04.823Z,-1.08
2019-02-20T02:20:04.739Z,-1.02
2019-02-20T02:21:04.730Z,-0.99
2019-02-20T02:22:04.722Z,-0.99
2019-02-20T02:23:04.741Z,-1.05
2019-02-20T02:24:04.701Z,-1.03
2019-02-20T02:25:04.726Z,-1.07
2019-02-20T02:26:10.650Z,-0.95
2019-02-20T02:27:05.663Z,-1.03
2019-02-20T02:28:04.685Z,-1.10
2019-02-20T02:29:04.643Z,-0.95
2019-02-20T02:30:04.673Z,-0.96
2019-02-20T02:31:04.625Z,-0.97
2019-02-20T02:32:04.717Z,-0.93
2019-02-20T02:33:04.614Z,-0.92
2019-02-20T02:34:04.635Z,-0.97
2019-02-20T02:35:04.575Z,-0.93
2019-02-20T02:36:05.596Z,-0.85
2019-02-20T02:37:04.545Z,-0.96
2019-02-20T02:38:04.660Z,-0.85
2019-02-20T02:39:04.532Z,-0.78
2019-02-20T02:40:05.579Z,-0.85
2019-02-20T02:41:04.501Z,-0.89
2019-02-20T02:42:04.547Z,-0.90
2019-02-20T02:43:04.518Z,-0.86
2019-02-20T02:44:04.519Z,-0.95
2019-02-20T02:45:04.474Z,-0.92
2019-02-20T02:46:05.489Z,-0.95
2019-02-20T02:47:04.440Z,-0.89
2019-02-20T02:48:04.539Z,-0.90
2019-02-20T02:49:04.410Z,-0.92
2019-02-20T02:50:04.431Z,-0.90
2019-02-20T02:51:04.401Z,-0.89
2019-02-20T02:52:04.475Z,-0.90
2019-02-20T02:53:04.392Z,-0.83
2019-02-20T02:54:05.433Z,-0.89
2019-02-20T02:55:04.362Z,-0.81
2019-02-20T02:56:04.447Z,-0.85
2019-02-20T02:57:04.334Z,-0.77
2019-02-20T02:58:04.342Z,-0.78
2019-02-20T02:59:04.317Z,-0.85
2019-02-20T03:00:05.334Z,-0.77
2019-02-20T03:01:04.294Z,-0.85
2019-02-20T03:02:04.350Z,-0.85
2019-02-20T03:03:04.358Z,-0.93
2019-02-20T03:04:04.257Z,-0.86
2019-02-20T03:05:05.276Z,-0.90
2019-02-20T03:06:04.236Z,-0.89
2019-02-20T03:07:04.287Z,-0.92
2019-02-20T03:08:04.240Z,-0.92
2019-02-20T03:09:04.231Z,-0.92
2019-02-20T03:10:04.216Z,-0.96
2019-02-20T03:11:04.274Z,-0.92
2019-02-20T03:12:04.163Z,-0.92
2019-02-20T03:13:04.249Z,-0.93
2019-02-20T03:14:04.169Z,-0.93
2019-02-20T03:15:04.230Z,-0.92
2019-02-20T03:16:04.123Z,-0.93
2019-02-20T03:17:04.173Z,-0.95
2019-02-20T03:18:04.110Z,-0.95
2019-02-20T03:19:04.091Z,-0.95
2019-02-20T03:20:04.168Z,-0.89
2019-02-20T03:21:04.064Z,-0.83
2019-02-20T03:22:04.112Z,-0.92
2019-02-20T03:23:04.059Z,-0.89
2019-02-20T03:24:04.043Z,-0.77
2019-02-20T03:25:04.025Z,-0.83
2019-02-20T03:26:10.736Z,-0.85
2019-02-20T03:27:03.994Z,-0.78
2019-02-20T03:28:04.067Z,-0.74
2019-02-20T03:29:03.985Z,-0.76
2019-02-20T03:30:04.065Z,-0.80
2019-02-20T03:31:03.966Z,-0.78
2019-02-20T03:32:04.009Z,-0.74
2019-02-20T03:33:03.967Z,-0.76
2019-02-20T03:34:04.037Z,-0.78
2019-02-20T03:35:03.918Z,-0.77
2019-02-20T03:36:03.969Z,-0.74
2019-02-20T03:37:03.900Z,-0.81
2019-02-20T03:38:04.977Z,-0.77
2019-02-20T03:39:03.878Z,-0.86
2019-02-20T03:40:03.869Z,-0.83
2019-02-20T03:41:04.923Z,-0.80
2019-02-20T03:42:03.850Z,-0.81
2019-02-20T03:43:03.890Z,-0.86
2019-02-20T03:44:03.818Z,-0.73
2019-02-20T03:45:03.805Z,-0.85
2019-02-20T03:46:03.801Z,-0.83
2019-02-20T03:47:03.811Z,-0.85
2019-02-20T03:48:03.786Z,-0.60
2019-02-20T03:49:11.734Z,-0.70
2019-02-20T03:50:03.762Z,-0.65
2019-02-20T03:51:03.777Z,-0.63
2019-02-20T03:52:03.723Z,-0.62
2019-02-20T03:53:04.798Z,-0.68
2019-02-20T03:54:03.703Z,-0.60
2019-02-20T03:55:03.765Z,-0.55
2019-02-20T03:56:03.705Z,-0.59
2019-02-20T03:57:03.696Z,-0.59
2019-02-20T03:58:03.688Z,-0.59
2019-02-20T03:59:03.745Z,-0.59
2019-02-20T04:00:03.642Z,-0.56
2019-02-20T04:01:03.629Z,-0.63
2019-02-20T04:02:03.636Z,-0.70
2019-02-20T04:03:03.616Z,-0.68
2019-02-20T04:04:03.669Z,-0.68
2019-02-20T04:05:03.588Z,-0.67
2019-02-20T04:06:03.644Z,-0.70
2019-02-20T04:07:03.588Z,-0.73
2019-02-20T04:08:03.600Z,-0.60
2019-02-20T04:09:03.554Z,-0.76
2019-02-20T04:10:03.596Z,-0.70
2019-02-20T04:11:03.521Z,-0.80
2019-02-20T04:12:03.671Z,-0.74
2019-02-20T04:13:03.510Z,-0.70
2019-02-20T04:14:03.553Z,-0.70
2019-02-20T04:15:03.485Z,-0.71
2019-02-20T04:16:03.499Z,-0.63
2019-02-20T04:17:03.462Z,-0.65
2019-02-20T04:18:04.496Z,-0.65
2019-02-20T04:19:03.444Z,-0.67
2019-02-20T04:20:03.454Z,-0.76
2019-02-20T04:21:03.638Z,-0.73
2019-02-20T04:22:03.414Z,-0.80
2019-02-20T04:23:03.524Z,-0.74
2019-02-20T04:24:03.385Z,-0.81
2019-02-20T04:25:03.404Z,-0.62
2019-02-20T04:26:03.366Z,-0.71
2019-02-20T04:27:03.364Z,-0.73
2019-02-20T04:28:03.321Z,-0.78
2019-02-20T04:29:03.416Z,-0.77
2019-02-20T04:30:03.326Z,-0.77
2019-02-20T04:31:03.434Z,-0.81
2019-02-20T04:32:03.283Z,-0.81
2019-02-20T04:33:04.378Z,-0.78
2019-02-20T04:34:03.300Z,-0.74
2019-02-20T04:35:04.309Z,-0.89
2019-02-20T04:36:03.245Z,-0.90
2019-02-20T04:37:03.319Z,-0.89
2019-02-20T04:38:03.226Z,-0.89
2019-02-20T04:39:03.302Z,-0.89
2019-02-20T04:40:03.200Z,-0.78
2019-02-20T04:41:04.214Z,-0.78
2019-02-20T04:42:03.181Z,-0.78
2019-02-20T04:43:03.184Z,-0.77
2019-02-20T04:44:03.242Z,-0.73
2019-02-20T04:45:03.177Z,-0.80
2019-02-20T04:46:03.235Z,-0.83
2019-02-20T04:47:03.143Z,-0.70
2019-02-20T04:48:03.161Z,-0.67
2019-02-20T04:49:03.158Z,-0.67
2019-02-20T04:50:03.113Z,-0.62
2019-02-20T04:51:03.105Z,-0.73
2019-02-20T04:52:04.175Z,-0.70
2019-02-20T04:53:03.078Z,-0.62
2019-02-20T04:54:12.697Z,-0.73
2019-02-20T04:55:04.048Z,-0.67
2019-02-20T04:56:09.686Z,-0.67
2019-02-20T04:57:03.026Z,-0.67
2019-02-20T04:58:03.057Z,-0.68
2019-02-20T04:59:03.013Z,-0.56
2019-02-20T05:00:04.011Z,-0.59
2019-02-20T05:01:02.991Z,-0.59
2019-02-20T05:02:03.028Z,-0.62
2019-02-20T05:03:02.967Z,-0.62
2019-02-20T05:04:02.975Z,-0.59
2019-02-20T05:05:02.929Z,-0.67
2019-02-20T05:06:02.990Z,-0.62
2019-02-20T05:07:02.911Z,-0.62
2019-02-20T05:08:02.930Z,-0.50
2019-02-20T05:09:02.940Z,-0.53
2019-02-20T05:10:02.882Z,-0.52
2019-02-20T05:11:02.932Z,-0.53
2019-02-20T05:12:02.858Z,-0.62
2019-02-20T05:13:02.863Z,-0.49
2019-02-20T05:14:02.842Z,-0.60
2019-02-20T05:15:03.939Z,-0.60
2019-02-20T05:16:02.813Z,-0.59
2019-02-20T05:17:02.836Z,-0.52
2019-02-20T05:18:02.794Z,-0.55
2019-02-20T05:19:02.813Z,-0.53
2019-02-20T05:20:02.849Z,-0.42
2019-02-20T05:21:02.768Z,-0.44
2019-02-20T05:22:02.785Z,-0.47
2019-02-20T05:23:02.747Z,-0.41
2019-02-20T05:24:03.788Z,-0.44
2019-02-20T05:25:02.787Z,-0.49
2019-02-20T05:26:02.707Z,-0.39
2019-02-20T05:27:03.740Z,-0.49
2019-02-20T05:28:02.688Z,-0.47
2019-02-20T05:29:02.809Z,-0.38
2019-02-20T05:30:02.728Z,-0.31
2019-02-20T05:31:02.660Z,-0.35
2019-02-20T05:32:02.659Z,-0.35
2019-02-20T05:33:02.633Z,-0.35
2019-02-20T05:34:02.743Z,-0.30
2019-02-20T05:35:02.614Z,-0.27
2019-02-20T05:36:02.630Z,-0.32
2019-02-20T05:37:02.588Z,-0.30
2019-02-20T05:38:02.672Z,-0.24
2019-02-20T05:39:02.581Z,-0.20
2019-02-20T05:40:02.604Z,-0.24
2019-02-20T05:41:02.552Z,-0.23
2019-02-20T05:42:09.187Z,-0.24
2019-02-20T05:43:02.533Z,-0.17
2019-02-20T05:44:03.551Z,-0.17
2019-02-20T05:45:02.508Z,-0.19
2019-02-20T05:46:02.483Z,-0.14
2019-02-20T05:47:02.474Z,-0.16
2019-02-20T05:48:04.597Z,-0.14
2019-02-20T05:49:02.464Z,-0.16
2019-02-20T05:50:09.385Z,-0.19
2019-02-20T05:51:02.446Z,-0.12
2019-02-20T05:52:02.418Z,-0.17
2019-02-20T05:53:03.512Z,-0.17
2019-02-20T05:54:02.416Z,-0.14
2019-02-20T05:55:02.417Z,-0.17
2019-02-20T05:56:02.378Z,-0.13
2019-02-20T05:57:02.466Z,-0.08
2019-02-20T05:58:02.358Z,-0.06
2019-02-20T05:59:02.448Z,-0.06
2019-02-20T06:00:02.339Z,-0.03
2019-02-20T06:01:02.443Z,-0.17
2019-02-20T06:02:02.321Z,-0.09
2019-02-20T06:03:02.372Z,-0.13
2019-02-20T06:04:02.310Z,-0.12
2019-02-20T06:05:02.402Z,-0.02
2019-02-20T06:06:02.285Z,-0.06
2019-02-20T06:07:02.263Z,-0.09
2019-02-20T06:08:02.252Z,-0.13
2019-02-20T06:09:02.317Z,-0.12
2019-02-20T06:10:02.233Z,-0.12
2019-02-20T06:11:12.203Z,-0.06
2019-02-20T06:12:03.207Z,-0.01
2019-02-20T06:13:04.314Z,-0.02
2019-02-20T06:14:02.203Z,-0.02
2019-02-20T06:15:02.284Z,0.17
2019-02-20T06:16:02.167Z,0.10
2019-02-20T06:17:02.211Z,0.17
2019-02-20T06:18:02.143Z,0.12
2019-02-20T06:19:02.205Z,0.08
2019-02-20T06:20:02.123Z,0.16
2019-02-20T06:21:02.186Z,0.12
2019-02-20T06:22:02.108Z,0.17
2019-02-20T06:23:02.087Z,0.20
2019-02-20T06:24:02.085Z,0.25
2019-02-20T06:25:08.708Z,0.25
2019-02-20T06:26:02.069Z,0.22
2019-02-20T06:27:02.089Z,0.25
2019-02-20T06:28:02.061Z,0.28
2019-02-20T06:29:02.034Z,0.23
2019-02-20T06:30:02.042Z,0.20
2019-02-20T06:31:02.008Z,0.33
2019-02-20T06:32:02.032Z,0.26
2019-02-20T06:33:01.980Z,0.28
2019-02-20T06:34:02.071Z,0.31
2019-02-20T06:35:01.960Z,0.33
2019-02-20T06:36:02.012Z,0.40
2019-02-20T06:37:01.933Z,0.37
2019-02-20T06:38:01.938Z,0.44
2019-02-20T06:39:01.903Z,0.48
2019-02-20T06:40:02.034Z,0.59
2019-02-20T06:41:01.922Z,0.70
2019-02-20T06:42:01.922Z,0.74
2019-02-20T06:43:01.868Z,0.81
2019-02-20T06:44:01.864Z,0.81
2019-02-20T06:45:01.868Z,0.78
2019-02-20T06:46:01.885Z,0.72
2019-02-20T06:47:01.825Z,0.71
2019-02-20T06:48:01.927Z,0.78
2019-02-20T06:49:03.834Z,0.77
2019-02-20T06:50:01.896Z,0.67
2019-02-20T06:51:01.830Z,0.68
2019-02-20T06:52:01.777Z,0.77
2019-02-20T06:53:01.864Z,0.71
2019-02-20T06:54:01.747Z,0.77
2019-02-20T06:55:01.849Z,0.68
2019-02-20T06:56:01.731Z,0.71
2019-02-20T06:57:03.778Z,0.86
2019-02-20T06:58:01.936Z,0.77
2019-02-20T06:59:02.882Z,0.81
2019-02-20T07:00:01.690Z,0.84
2019-02-20T07:01:01.718Z,0.82
2019-02-20T07:02:01.663Z,0.80
2019-02-20T07:03:01.928Z,0.78
2019-02-20T07:04:01.641Z,0.77
2019-02-20T07:05:01.653Z,0.81
2019-02-20T07:06:01.641Z,0.84
2019-02-20T07:07:01.600Z,0.86
2019-02-20T07:08:01.673Z,0.80
2019-02-20T07:09:01.589Z,0.77
2019-02-20T07:10:01.586Z,0.86
2019-02-20T07:11:01.575Z,0.80
2019-02-20T07:12:01.554Z,0.86
2019-02-20T07:13:01.635Z,0.89
2019-02-20T07:14:01.535Z,0.89
2019-02-20T07:15:01.537Z,0.82
2019-02-20T07:16:02.549Z,0.84
2019-02-20T07:17:01.508Z,1.04
2019-02-20T07:18:01.566Z,1.00
2019-02-20T07:19:01.478Z,0.98
2019-02-20T07:20:01.505Z,1.08
2019-02-20T07:21:01.458Z,1.10
2019-02-20T07:22:01.529Z,1.17
2019-02-20T07:23:01.439Z,1.18
2019-02-20T07:24:01.472Z,1.18
2019-02-20T07:25:03.379Z,1.28
2019-02-20T07:26:01.446Z,1.24
2019-02-20T07:27:01.465Z,1.31
2019-02-20T07:28:01.381Z,1.21
2019-02-20T07:29:01.401Z,1.32
2019-02-20T07:30:01.379Z,1.35
2019-02-20T07:31:01.445Z,1.35
2019-02-20T07:32:01.342Z,1.34
2019-02-20T07:33:01.373Z,1.31
2019-02-20T07:34:01.333Z,1.39
2019-02-20T07:35:01.341Z,1.52
2019-02-20T07:36:01.327Z,1.52
2019-02-20T07:37:02.362Z,1.56
2019-02-20T07:38:01.265Z,1.63
2019-02-20T07:39:01.284Z,1.61
2019-02-20T07:40:01.244Z,1.64
2019-02-20T07:41:01.235Z,1.65
2019-02-20T07:42:01.226Z,1.60
2019-02-20T07:43:02.276Z,1.70
2019-02-20T07:44:01.273Z,1.75
2019-02-20T07:45:01.240Z,1.77
2019-02-20T07:46:01.194Z,1.75
2019-02-20T07:47:01.227Z,1.81
2019-02-20T07:48:01.170Z,1.93
2019-02-20T07:49:01.259Z,1.88
2019-02-20T07:50:01.149Z,1.89
2019-02-20T07:51:01.128Z,2.00
2019-02-20T07:52:01.119Z,2.05
2019-02-20T07:53:01.129Z,2.20
2019-02-20T07:54:01.100Z,2.19
2019-02-20T07:55:01.120Z,2.26
2019-02-20T07:56:02.170Z,2.26
2019-02-20T07:57:01.061Z,2.38
2019-02-20T07:58:07.732Z,2.33
2019-02-20T07:59:01.045Z,2.40
2019-02-20T08:00:02.082Z,2.40
2019-02-20T08:01:01.023Z,2.53
2019-02-20T08:02:01.044Z,2.55
2019-02-20T08:03:01.003Z,2.62
2019-02-20T08:04:02.005Z,2.69
2019-02-20T08:05:00.991Z,2.76
2019-02-20T08:06:01.018Z,2.86
2019-02-20T08:07:00.984Z,2.84
2019-02-20T08:08:00.945Z,2.89
2019-02-20T08:09:01.025Z,2.90
2019-02-20T08:10:00.926Z,2.97
2019-02-20T08:11:00.959Z,3.01
2019-02-20T08:12:00.926Z,3.10
2019-02-20T08:13:00.889Z,3.13
2019-02-20T08:14:00.967Z,3.28
2019-02-20T08:15:00.865Z,3.35
2019-02-20T08:16:00.919Z,3.33
2019-02-20T08:17:00.815Z,3.49
2019-02-20T08:18:00.827Z,3.56
2019-02-20T08:19:00.883Z,3.62
2019-02-20T08:20:00.824Z,3.75
2019-02-20T08:21:00.830Z,3.78
2019-02-20T08:22:00.792Z,3.89
2019-02-20T08:23:00.771Z,3.95
2019-02-20T08:24:00.775Z,3.99
2019-02-20T08:25:00.851Z,4.08
2019-02-20T08:26:00.766Z,4.17
2019-02-20T08:27:00.850Z,4.29
2019-02-20T08:28:00.705Z,4.47
2019-02-20T08:29:00.773Z,4.71
2019-02-20T08:30:00.745Z,4.84
2019-02-20T08:31:00.724Z,5.11
2019-02-20T08:32:00.687Z,5.26
2019-02-20T08:33:00.754Z,5.42
2019-02-20T08:34:00.648Z,5.62
2019-02-20T08:35:00.715Z,5.83
2019-02-20T08:36:00.638Z,5.93
2019-02-20T08:37:00.706Z,6.27
2019-02-20T08:38:00.610Z,6.45
2019-02-20T08:39:00.591Z,6.57
2019-02-20T08:40:02.658Z,6.63
2019-02-20T08:41:00.589Z,6.76
2019-02-20T08:42:00.668Z,6.76
2019-02-20T08:43:00.551Z,6.68
2019-02-20T08:44:00.598Z,6.75
2019-02-20T08:45:00.539Z,6.75
2019-02-20T08:46:00.580Z,6.83
2019-02-20T08:47:00.521Z,6.76
2019-02-20T08:48:07.220Z,6.90
2019-02-20T08:49:00.516Z,6.91
2019-02-20T08:50:00.521Z,6.96
2019-02-20T08:51:00.520Z,7.15
2019-02-20T08:52:00.480Z,6.96
2019-02-20T08:53:00.522Z,7.09
2019-02-20T08:54:00.443Z,7.07
2019-02-20T08:55:00.426Z,7.07
2019-02-20T08:56:00.413Z,6.96
2019-02-20T08:57:00.484Z,6.97
2019-02-20T08:58:00.379Z,6.97
2019-02-20T08:59:00.429Z,7.05
2019-02-20T09:00:00.365Z,7.36
2019-02-20T09:01:00.368Z,7.85
2019-02-20T09:02:00.335Z,8.10
2019-02-20T09:03:00.387Z,8.64
2019-02-20T09:04:00.331Z,8.78
2019-02-20T09:05:00.428Z,9.06
2019-02-20T09:06:00.347Z,9.41
2019-02-20T09:07:00.280Z,9.67
2019-02-20T09:08:00.339Z,9.68
2019-02-20T09:09:00.276Z,9.60
2019-02-20T09:10:00.370Z,9.73
2019-02-20T09:11:00.259Z,9.67
2019-02-20T09:12:00.220Z,9.53
2019-02-20T09:13:01.435Z,9.67
2019-02-20T09:14:00.422Z,9.67
2019-02-20T09:15:00.510Z,9.93
2019-02-20T09:16:00.485Z,10.46
2019-02-20T09:17:00.353Z,10.60
2019-02-20T09:18:00.162Z,10.47
2019-02-20T09:19:00.183Z,10.90
2019-02-20T09:20:00.329Z,11.39
2019-02-20T09:21:00.260Z,11.81
2019-02-20T09:22:00.134Z,12.01
2019-02-20T09:23:00.155Z,12.21
2019-02-20T09:24:00.119Z,12.00
2019-02-20T09:25:00.280Z,11.78
2019-02-20T09:26:00.110Z,11.72
2019-02-20T09:27:02.166Z,11.54
2019-02-20T09:28:01.116Z,11.09
2019-02-20T09:29:00.061Z,10.75
2019-02-20T09:30:00.334Z,10.52
2019-02-20T09:31:00.038Z,10.17
2019-02-20T09:32:00.068Z,9.73
2019-02-20T09:32:59.999Z,9.67
2019-02-20T09:34:00.099Z,9.62
2019-02-20T09:34:59.990Z,9.86
2019-02-20T09:36:01.031Z,9.93
2019-02-20T09:36:59.961Z,9.71
2019-02-20T09:37:59.972Z,9.65
2019-02-20T09:38:59.922Z,9.49
2019-02-20T09:40:01.023Z,9.32
2019-02-20T09:40:59.925Z,8.96
2019-02-20T09:41:59.942Z,8.75
2019-02-20T09:42:59.887Z,8.70
2019-02-20T09:43:59.897Z,8.54
2019-02-20T09:44:59.875Z,8.47
2019-02-20T09:45:59.942Z,8.46
2019-02-20T09:46:59.844Z,8.29
2019-02-20T09:47:59.946Z,8.22
2019-02-20T09:48:59.816Z,8.17
2019-02-20T09:49:59.814Z,8.09
2019-02-20T09:50:59.896Z,8.00
2019-02-20T09:51:59.786Z,8.10
2019-02-20T09:52:59.888Z,8.12
2019-02-20T09:53:59.767Z,8.00
2019-02-20T09:54:59.758Z,8.06
2019-02-20T09:55:59.861Z,8.20
2019-02-20T09:56:59.731Z,8.21
2019-02-20T09:58:01.780Z,8.27
2019-02-20T09:58:59.720Z,8.32
2019-02-20T09:59:59.700Z,8.31
2019-02-20T10:00:59.710Z,8.43
2019-02-20T10:01:59.704Z,8.43
2019-02-20T10:02:59.672Z,8.28
2019-02-20T10:03:59.742Z,8.28
2019-02-20T10:04:59.648Z,8.31
2019-02-20T10:05:59.653Z,8.28
2019-02-20T10:06:59.666Z,8.39
2019-02-20T10:07:59.608Z,8.42
2019-02-20T10:08:59.674Z,8.31
2019-02-20T10:09:59.580Z,8.36
2019-02-20T10:10:59.598Z,8.49
2019-02-20T10:12:00.605Z,8.45
2019-02-20T10:12:59.557Z,8.40
2019-02-20T10:13:59.616Z,8.43
2019-02-20T10:14:59.537Z,8.46
2019-02-20T10:15:59.568Z,8.42
2019-02-20T10:16:59.527Z,8.45
2019-02-20T10:18:00.508Z,8.43
2019-02-20T10:18:59.485Z,8.45
2019-02-20T10:19:59.519Z,8.58
2019-02-20T10:20:59.479Z,8.54
2019-02-20T10:21:59.449Z,8.47
2019-02-20T10:22:59.452Z,8.52
2019-02-20T10:23:59.493Z,8.63
2019-02-20T10:24:59.427Z,8.64
2019-02-20T10:26:01.212Z,8.73
2019-02-20T10:27:00.877Z,8.73
2019-02-20T10:27:59.372Z,8.68
2019-02-20T10:28:59.433Z,8.58
2019-02-20T10:29:59.373Z,8.54
2019-02-20T10:30:59.424Z,8.57
2019-02-20T10:31:59.335Z,8.73
2019-02-20T10:32:59.325Z,8.71
2019-02-20T10:33:59.315Z,8.93
2019-02-20T10:34:59.325Z,8.88
2019-02-20T10:35:59.336Z,8.88
2019-02-20T10:36:59.377Z,9.04
2019-02-20T10:37:59.246Z,8.97
2019-02-20T10:38:59.306Z,8.98
2019-02-20T10:39:59.247Z,9.04
2019-02-20T10:40:59.250Z,9.12
2019-02-20T10:41:59.238Z,9.06
2019-02-20T10:42:59.299Z,9.08
2019-02-20T10:43:59.199Z,8.94
2019-02-20T10:44:59.239Z,8.88
2019-02-20T10:45:59.180Z,8.89
2019-02-20T10:46:59.222Z,9.00
2019-02-20T10:47:59.150Z,9.06
2019-02-20T10:48:59.143Z,9.06
2019-02-20T10:49:59.144Z,9.17
2019-02-20T10:51:01.182Z,9.17
2019-02-20T10:51:59.110Z,9.19
2019-02-20T10:53:00.193Z,9.22
2019-02-20T10:53:59.096Z,9.13
2019-02-20T10:54:59.084Z,9.15
2019-02-20T10:55:59.174Z,9.10
2019-02-20T10:56:59.077Z,9.08
2019-02-20T10:57:59.169Z,9.19
2019-02-20T10:58:59.036Z,9.20
2019-02-20T10:59:59.027Z,9.12
2019-02-20T11:00:59.007Z,9.10
2019-02-20T11:01:59.127Z,9.08
2019-02-20T11:02:58.998Z,9.04
2019-02-20T11:03:59.018Z,8.91
2019-02-20T11:04:58.958Z,8.79
2019-02-20T11:05:58.959Z,8.75
2019-02-20T11:06:59.070Z,8.73
2019-02-20T11:07:58.942Z,8.57
2019-02-20T11:08:58.951Z,8.63
2019-02-20T11:09:58.921Z,8.75
2019-02-20T11:10:58.902Z,8.76
2019-02-20T11:11:58.877Z,8.70
2019-02-20T11:12:58.922Z,8.78
2019-02-20T11:13:58.862Z,8.89
2019-02-20T11:14:58.963Z,8.86
2019-02-20T11:15:58.970Z,8.85
2019-02-20T11:16:58.941Z,8.79
2019-02-20T11:17:58.846Z,8.78
2019-02-20T11:18:58.836Z,8.80
2019-02-20T11:19:58.795Z,8.73
2019-02-20T11:20:59.897Z,8.93
2019-02-20T11:21:58.788Z,8.91
2019-02-20T11:22:59.829Z,8.98
2019-02-20T11:23:58.737Z,9.15
2019-02-20T11:24:58.838Z,9.22
2019-02-20T11:25:58.735Z,9.20
2019-02-20T11:26:58.728Z,9.16
2019-02-20T11:27:58.709Z,8.98
2019-02-20T11:28:58.709Z,9.04
2019-02-20T11:29:58.677Z,9.10
2019-02-20T11:30:58.751Z,9.13
2019-02-20T11:31:58.670Z,9.24
2019-02-20T11:32:59.701Z,9.19
2019-02-20T11:33:58.644Z,9.04
2019-02-20T11:34:58.742Z,9.08
2019-02-20T11:35:58.613Z,9.01
2019-02-20T11:36:58.721Z,9.00
2019-02-20T11:37:58.623Z,8.97
2019-02-20T11:38:58.594Z,9.08
2019-02-20T11:39:58.656Z,9.13
2019-02-20T11:40:58.565Z,9.22
2019-02-20T11:41:58.645Z,9.17
2019-02-20T11:42:58.555Z,9.32
2019-02-20T11:43:58.636Z,9.38
2019-02-20T11:44:58.531Z,9.40
2019-02-20T11:45:58.571Z,9.49
2019-02-20T11:46:58.517Z,9.52
2019-02-20T11:47:58.499Z,9.38
2019-02-20T11:48:58.481Z,9.48
2019-02-20T11:49:59.569Z,9.27
2019-02-20T11:50:58.459Z,9.19
2019-02-20T11:51:58.521Z,9.06
2019-02-20T11:52:58.430Z,9.06
2019-02-20T11:53:58.410Z,9.13
2019-02-20T11:54:58.412Z,9.13
2019-02-20T11:55:58.453Z,9.13
2019-02-20T11:56:58.403Z,9.13
2019-02-20T11:58:00.761Z,9.06
2019-02-20T11:58:58.373Z,9.12
2019-02-20T11:59:58.353Z,9.16
2019-02-20T12:00:58.414Z,9.13
2019-02-20T12:01:58.344Z,9.20
2019-02-20T12:02:58.435Z,9.26
2019-02-20T12:03:58.315Z,9.32
2019-02-20T12:04:58.286Z,9.26
2019-02-20T12:05:58.282Z,9.30
2019-02-20T12:06:58.356Z,9.23
2019-02-20T12:07:58.268Z,9.20
2019-02-20T12:08:58.337Z,9.26
2019-02-20T12:09:58.249Z,9.27
2019-02-20T12:10:58.278Z,9.27
2019-02-20T12:11:58.221Z,9.20
2019-02-20T12:12:58.309Z,9.35
2019-02-20T12:13:58.189Z,9.32
2019-02-20T12:14:58.240Z,9.35
2019-02-20T12:15:58.175Z,9.45
2019-02-20T12:17:00.271Z,9.38
2019-02-20T12:17:58.144Z,9.34
2019-02-20T12:18:59.246Z,9.24
2019-02-20T12:19:58.123Z,9.26
2019-02-20T12:20:58.119Z,9.23
2019-02-20T12:21:58.113Z,9.31
2019-02-20T12:22:59.104Z,9.26
2019-02-20T12:23:58.074Z,9.31
2019-02-20T12:24:59.388Z,9.30
2019-02-20T12:25:58.075Z,9.22
2019-02-20T12:26:58.056Z,9.19
2019-02-20T12:27:58.136Z,9.10
2019-02-20T12:28:58.017Z,9.08
2019-02-20T12:29:58.068Z,9.08
2019-02-20T12:30:58.017Z,9.10
2019-02-20T12:31:57.999Z,8.96
2019-02-20T12:32:57.978Z,9.00
2019-02-20T12:33:58.042Z,9.03
2019-02-20T12:34:57.959Z,9.06
2019-02-20T12:35:57.979Z,9.06
2019-02-20T12:36:57.949Z,9.01
2019-02-20T12:37:58.011Z,8.96
2019-02-20T12:38:57.915Z,8.88
2019-02-20T12:39:57.941Z,8.94
2019-02-20T12:40:57.892Z,8.82
2019-02-20T12:41:57.931Z,8.91
2019-02-20T12:42:57.952Z,8.71
2019-02-20T12:43:57.876Z,8.80
2019-02-20T12:44:58.917Z,8.71
2019-02-20T12:45:57.845Z,8.71
2019-02-20T12:46:58.854Z,8.71
2019-02-20T12:47:57.935Z,8.80
2019-02-20T12:48:57.805Z,8.71
2019-02-20T12:49:57.826Z,8.85
2019-02-20T12:50:57.787Z,8.89
2019-02-20T12:51:57.868Z,9.00
2019-02-20T12:52:57.777Z,9.00
2019-02-20T12:53:57.748Z,9.06
2019-02-20T12:54:57.768Z,9.06
2019-02-20T12:55:57.728Z,9.13
2019-02-20T12:56:57.798Z,9.10
2019-02-20T12:57:57.728Z,9.16
2019-02-20T12:58:57.699Z,9.24
2019-02-20T12:59:57.681Z,9.26
2019-02-20T13:00:57.771Z,9.16
2019-02-20T13:01:57.651Z,9.17
2019-02-20T13:02:59.300Z,9.08
2019-02-20T13:03:57.631Z,9.00
2019-02-20T13:04:57.643Z,9.04